Time;durP1;ratioP1;P1;durP2;ratioP2;P2;SDS_P1;SDS_P2;PMS_P1;PMS_P2;Temp;Humidity;BMP_temperature;BMP_pressure;BME280_temperature;BME280_humidity;BME280_pressure;Samples;Min_cycle;Max_cycle;Signal;HPM_P1;HPM_P2
2022/08/01 00:00:59;;;;;;;;;;;17.50;99.90;;;;;;5050251;28;20487;-75
2022/08/01 00:03:25;;;;;;;0.30;0.30;;;17.70;99.90;;;;;;5054437;28;19931;-75
2022/08/01 00:05:50;;;;;;;;;;;17.60;99.90;;;;;;5058448;28;20488;-75
2022/08/01 00:08:16;;;;;;;0.52;0.52;;;17.60;99.90;;;;;;5053929;28;20008;-75
2022/08/01 00:10:42;;;;;;;;;;;17.60;99.90;;;;;;5039315;28;20047;-76
2022/08/01 00:13:07;;;;;;;0.45;0.45;;;17.60;99.90;;;;;;5056304;28;19924;-75
2022/08/01 00:15:33;;;;;;;;;;;17.70;99.90;;;;;;5055680;28;20425;-76
2022/08/01 00:17:59;;;;;;;0.25;0.25;;;17.60;99.90;;;;;;5056515;28;20350;-75
2022/08/01 00:20:24;;;;;;;;;;;17.70;99.90;;;;;;5058618;28;20057;-75
2022/08/01 00:22:50;;;;;;;0.30;0.30;;;17.70;99.90;;;;;;5058634;28;19922;-75
2022/08/01 00:25:16;;;;;;;;;;;17.70;99.90;;;;;;5056588;28;20082;-75
2022/08/01 00:27:41;;;;;;;0.40;0.40;;;17.50;99.90;;;;;;5045390;28;19927;-75
2022/08/01 00:30:07;;;;;;;;;;;17.60;99.90;;;;;;5053528;28;20608;-75
2022/08/01 00:32:33;;;;;;;0.35;0.35;;;17.60;99.90;;;;;;5037202;28;19995;-75
2022/08/01 00:34:58;;;;;;;;;;;17.70;99.90;;;;;;5033210;28;20041;-75
2022/08/01 00:37:24;;;;;;;0.30;0.30;;;17.60;99.90;;;;;;5050566;28;19916;-76
2022/08/01 00:39:50;;;;;;;;;;;17.60;99.90;;;;;;5048660;28;20586;-75
2022/08/01 00:42:15;;;;;;;0.50;0.50;;;17.60;99.90;;;;;;5047412;28;19921;-75
2022/08/01 00:44:41;;;;;;;;;;;17.50;99.90;;;;;;5051076;28;20426;-75
2022/08/01 00:47:07;;;;;;;0.20;0.20;;;17.50;99.90;;;;;;5048971;28;19927;-75
2022/08/01 00:49:33;;;;;;;0.30;0.30;;;17.60;99.90;;;;;;5049352;28;20033;-75
2022/08/01 00:51:59;;;;;;;;;;;17.60;99.90;;;;;;5056599;28;20037;-75
2022/08/01 00:54:26;;;;;;;0.20;0.20;;;17.50;99.90;;;;;;5050102;28;19924;-74
2022/08/01 00:56:52;;;;;;;0.52;0.52;;;17.60;99.90;;;;;;5049504;28;20505;-75
2022/08/01 00:59:20;;;;;;;0.45;0.45;;;17.50;99.90;;;;;;5050703;28;20051;-75
2022/08/01 01:01:46;;;;;;;1.30;1.25;;;17.50;99.90;;;;;;5047322;28;20045;-74
2022/08/01 01:04:11;;;;;;;;;;;17.50;99.90;;;;;;5049153;28;20075;-74
2022/08/01 01:07:08;;;;;;;0.28;0.28;;;17.50;99.90;;;;;;5049591;28;19920;-74
2022/08/01 01:09:44;;;;;;;0.38;0.38;;;17.40;99.90;;;;;;5049540;28;20055;-74
2022/08/01 01:12:27;;;;;;;;;;;17.50;99.90;;;;;;5048655;28;20041;-74
2022/08/01 01:14:59;;;;;;;0.75;0.65;;;17.40;99.90;;;;;;5047624;28;19991;-73
2022/08/01 01:17:32;;;;;;;0.30;0.30;;;17.40;99.90;;;;;;5049363;28;20097;-74
2022/08/01 01:20:02;;;;;;;0.30;0.30;;;17.30;99.90;;;;;;5050115;28;20037;-74
2022/08/01 01:22:51;;;;;;;0.40;0.40;;;17.30;99.90;;;;;;5049791;28;20037;-74
2022/08/01 01:25:25;;;;;;;0.32;0.32;;;17.30;99.90;;;;;;5043511;28;20387;-74
2022/08/01 01:28:21;;;;;;;0.30;0.30;;;17.30;99.90;;;;;;5062726;28;20045;-74
2022/08/01 01:30:51;;;;;;;0.40;0.40;;;17.20;99.90;;;;;;5054379;28;20041;-73
2022/08/01 01:33:19;;;;;;;0.68;0.68;;;17.20;99.90;;;;;;5049873;28;20498;-74
2022/08/01 01:35:53;;;;;;;0.65;0.55;;;17.30;99.90;;;;;;5044929;28;20037;-73
2022/08/01 01:38:26;;;;;;;0.30;0.30;;;17.30;99.90;;;;;;5049717;28;20048;-74
2022/08/01 01:40:53;;;;;;;0.47;0.47;;;17.20;99.90;;;;;;5045781;28;20056;-74
2022/08/01 01:43:20;;;;;;;0.22;0.22;;;17.20;99.90;;;;;;5033877;28;20398;-74
2022/08/01 01:45:48;;;;;;;0.30;0.30;;;17.10;99.90;;;;;;5031738;28;20078;-74
2022/08/01 01:48:17;;;;;;;0.50;0.50;;;17.10;99.90;;;;;;5055553;28;20049;-74
2022/08/01 01:50:46;;;;;;;0.35;0.35;;;17.10;99.90;;;;;;5069638;28;20052;-74
2022/08/01 01:53:15;;;;;;;0.20;0.20;;;17.10;99.90;;;;;;5051682;28;20434;-74
2022/08/01 01:55:43;;;;;;;0.30;0.30;;;17.00;99.90;;;;;;5037116;28;20044;-74
2022/08/01 01:58:13;;;;;;;0.17;0.17;;;17.20;99.90;;;;;;5050008;28;20097;-73
2022/08/01 02:00:40;;;;;;;4.20;1.75;;;17.10;99.90;;;;;;5053825;28;20064;-74
2022/08/01 02:03:09;;;;;;;0.20;0.20;;;17.00;99.90;;;;;;5049922;28;20376;-74
2022/08/01 02:05:38;;;;;;;0.30;0.30;;;16.90;99.90;;;;;;5051234;28;20041;-74
2022/08/01 02:08:05;;;;;;;0.50;0.50;;;17.00;99.90;;;;;;5050103;28;20374;-74
2022/08/01 02:10:33;;;;;;;0.30;0.30;;;16.90;99.90;;;;;;5052550;28;20033;-74
2022/08/01 02:13:03;;;;;;;0.35;0.35;;;17.00;99.90;;;;;;5036427;28;20506;-74
2022/08/01 02:15:32;;;;;;;0.30;0.30;;;16.90;99.90;;;;;;5050131;28;20406;-74
2022/08/01 02:18:00;;;;;;;0.20;0.20;;;16.90;99.90;;;;;;5034633;28;20402;-74
2022/08/01 02:20:29;;;;;;;0.30;0.30;;;17.00;99.90;;;;;;5053153;28;20084;-74
2022/08/01 02:23:04;;;;;;;0.30;0.30;;;16.90;99.90;;;;;;5067802;28;20124;-74
2022/08/01 02:25:39;;;;;;;0.45;0.45;;;17.00;99.90;;;;;;5050620;28;20074;-74
2022/08/01 02:28:08;;;;;;;0.40;0.40;;;16.90;99.90;;;;;;5048479;28;20060;-74
2022/08/01 02:30:38;;;;;;;0.20;0.20;;;16.90;99.90;;;;;;5053929;28;20497;-75
2022/08/01 02:33:25;;;;;;;0.50;0.50;;;16.90;99.90;;;;;;5052215;28;20048;-74
2022/08/01 02:35:56;;;;;;;0.25;0.25;;;16.90;99.90;;;;;;5034499;28;20037;-74
2022/08/01 02:38:26;;;;;;;0.20;0.20;;;16.90;99.90;;;;;;5047384;28;20094;-74
2022/08/01 02:40:53;;;;;;;0.30;0.30;;;16.90;99.90;;;;;;5053454;28;20061;-74
2022/08/01 02:43:23;;;;;;;0.20;0.20;;;17.00;99.90;;;;;;5046327;28;20049;-74
2022/08/01 02:45:54;;;;;;;0.40;0.40;;;16.90;99.90;;;;;;5061400;28;20490;-74
2022/08/01 02:48:21;;;;;;;0.30;0.30;;;16.90;99.90;;;;;;5046021;28;20556;-73
2022/08/01 02:50:49;;;;;;;0.30;0.30;;;16.80;99.90;;;;;;5060406;28;20051;-73
2022/08/01 02:53:18;;;;;;;0.50;0.50;;;16.90;99.90;;;;;;5038997;28;20041;-73
2022/08/01 02:55:47;;;;;;;0.28;0.28;;;16.90;99.90;;;;;;5044048;28;20116;-74
2022/08/01 02:58:15;;;;;;;0.35;0.35;;;16.90;99.90;;;;;;5050318;28;20048;-74
2022/08/01 03:00:43;;;;;;;0.40;0.40;;;16.70;99.90;;;;;;5049603;28;20083;-73
2022/08/01 03:03:10;;;;;;;0.40;0.40;;;16.70;99.90;;;;;;5046212;28;20111;-75
2022/08/01 03:05:39;;;;;;;0.40;0.40;;;16.60;99.90;;;;;;5050992;28;20045;-74
2022/08/01 03:08:09;;;;;;;0.40;0.40;;;16.60;99.90;;;;;;5051864;28;20052;-73
2022/08/01 03:10:38;;;;;;;0.50;0.50;;;16.50;99.90;;;;;;5050806;28;20477;-73
2022/08/01 03:13:07;;;;;;;0.35;0.35;;;16.60;99.90;;;;;;5049110;28;20091;-73
2022/08/01 03:15:37;;;;;;;0.25;0.25;;;16.50;99.90;;;;;;5050478;28;20049;-74
2022/08/01 03:18:05;;;;;;;0.30;0.30;;;16.60;99.90;;;;;;5045782;28;20068;-73
2022/08/01 03:20:32;;;;;;;0.20;0.20;;;16.50;99.90;;;;;;5050572;28;20041;-74
2022/08/01 03:23:03;;;;;;;0.30;0.30;;;16.50;99.90;;;;;;5067061;28;20041;-73
2022/08/01 03:25:30;;;;;;;0.20;0.20;;;16.60;99.90;;;;;;5050573;28;20487;-74
2022/08/01 03:28:00;;;;;;;0.20;0.20;;;16.40;99.90;;;;;;5064414;28;20061;-73
2022/08/01 03:30:27;;;;;;;0.55;0.55;;;16.60;99.90;;;;;;5066716;28;20048;-74
2022/08/01 03:32:54;;;;;;;0.30;0.30;;;16.50;99.90;;;;;;5050114;28;20037;-74
2022/08/01 03:35:23;;;;;;;0.20;0.20;;;16.40;99.90;;;;;;5047244;28;20044;-75
2022/08/01 03:37:53;;;;;;;0.20;0.20;;;16.50;99.90;;;;;;5045783;28;20048;-75
2022/08/01 03:40:28;;;;;;;0.57;0.57;;;16.40;99.90;;;;;;5049008;28;20047;-74
2022/08/01 03:43:01;;;;;;;0.30;0.30;;;16.50;99.90;;;;;;5047883;28;20045;-75
2022/08/01 03:45:34;;;;;;;0.20;0.20;;;16.40;99.90;;;;;;5051720;28;20098;-73
2022/08/01 03:48:03;;;;;;;0.30;0.30;;;16.40;99.90;;;;;;5050592;28;20548;-73
2022/08/01 03:50:33;;;;;;;0.25;0.25;;;16.40;99.90;;;;;;5056109;28;20490;-74
2022/08/01 03:53:01;;;;;;;0.20;0.20;;;16.40;99.90;;;;;;5050596;28;20040;-74
2022/08/01 03:55:29;;;;;;;0.20;0.20;;;16.40;99.90;;;;;;5045014;28;20045;-74
2022/08/01 03:57:56;;;;;;;0.43;0.43;;;16.40;99.90;;;;;;5050206;28;20067;-74
2022/08/01 04:00:24;;;;;;;0.30;0.30;;;16.30;99.90;;;;;;5055525;28;20053;-75
2022/08/01 04:02:50;;;;;;;0.30;0.30;;;16.20;99.90;;;;;;5052973;28;20526;-74
2022/08/01 04:05:17;;;;;;;0.28;0.28;;;16.40;99.90;;;;;;5062069;28;20489;-75
2022/08/01 04:07:56;;;;;;;1.35;0.57;;;16.30;99.90;;;;;;5050200;28;20045;-74
2022/08/01 04:10:25;;;;;;;0.40;0.40;;;16.30;99.90;;;;;;5063572;28;20041;-76
2022/08/01 04:12:51;;;;;;;0.30;0.30;;;16.30;99.90;;;;;;5029989;28;20432;-76
2022/08/01 04:15:17;;;;;;;0.70;0.38;;;16.30;99.90;;;;;;5049027;28;20493;-74
2022/08/01 04:17:43;;;;;;;;;;;16.20;99.90;;;;;;5046397;28;20041;-74
2022/08/01 04:20:10;;;;;;;0.30;0.30;;;16.30;99.90;;;;;;5048159;28;20459;-74
2022/08/01 04:22:36;;;;;;;0.38;0.38;;;16.30;99.90;;;;;;5049420;28;20049;-75
2022/08/01 04:25:04;;;;;;;;;;;16.30;99.90;;;;;;5056231;28;20090;-73
2022/08/01 04:27:34;;;;;;;0.30;0.30;;;16.30;99.90;;;;;;5060952;28;19920;-74
2022/08/01 04:30:00;;;;;;;0.45;0.45;;;16.30;99.90;;;;;;5055352;28;20394;-73
2022/08/01 04:32:31;;;;;;;0.28;0.28;;;16.50;99.90;;;;;;5038593;28;20039;-76
2022/08/01 04:34:59;;;;;;;0.30;0.30;;;16.40;99.90;;;;;;5048963;28;20041;-75
2022/08/01 04:37:27;;;;;;;1.13;0.30;;;16.40;99.90;;;;;;5050141;28;20045;-75
2022/08/01 04:39:56;;;;;;;0.32;0.32;;;16.50;99.90;;;;;;5049738;28;20048;-76
2022/08/01 04:42:22;;;;;;;0.30;0.30;;;16.50;99.90;;;;;;5057284;28;20044;-73
2022/08/01 04:44:48;;;;;;;0.40;0.40;;;16.50;99.90;;;;;;5051404;28;20082;-74
2022/08/01 04:47:14;;;;;;;0.28;0.28;;;16.50;99.90;;;;;;5056639;28;20079;-73
2022/08/01 04:49:40;;;;;;;;;;;16.40;99.90;;;;;;5052539;28;20432;-76
2022/08/01 04:52:06;;;;;;;0.30;0.30;;;16.30;99.90;;;;;;5060588;28;19929;-74
2022/08/01 04:54:36;;;;;;;0.30;0.30;;;16.30;99.90;;;;;;5029368;28;20334;-74
2022/08/01 04:57:06;;;;;;;0.40;0.40;;;16.40;99.90;;;;;;5053133;28;20144;-75
2022/08/01 04:59:41;;;;;;;0.20;0.20;;;16.30;99.90;;;;;;5051520;28;20040;-76
2022/08/01 05:02:12;;;;;;;0.20;0.20;;;16.30;99.90;;;;;;5056107;28;20047;-73
2022/08/01 05:04:39;;;;;;;0.30;0.30;;;16.30;99.90;;;;;;5055290;28;20080;-76
2022/08/01 05:07:06;;;;;;;0.30;0.30;;;16.40;99.90;;;;;;5055416;28;20305;-74
2022/08/01 05:09:33;;;;;;;0.30;0.30;;;16.30;99.90;;;;;;5056149;28;20390;-73
2022/08/01 05:12:03;;;;;;;0.60;0.60;;;16.30;99.90;;;;;;5057026;28;20047;-75
2022/08/01 05:14:31;;;;;;;0.40;0.40;;;16.40;99.90;;;;;;5045232;28;20040;-75
2022/08/01 05:17:02;;;;;;;0.60;0.60;;;16.20;99.90;;;;;;5056394;28;20065;-74
2022/08/01 05:19:31;;;;;;;0.32;0.32;;;16.30;99.90;;;;;;5038902;28;20056;-74
2022/08/01 05:22:01;;;;;;;0.30;0.30;;;16.30;99.90;;;;;;5049067;28;20052;-74
2022/08/01 05:24:35;;;;;;;0.40;0.40;;;16.30;99.90;;;;;;5050359;28;20049;-76
2022/08/01 05:27:01;;;;;;;0.57;0.57;;;16.30;99.90;;;;;;5047716;28;20476;-74
2022/08/01 05:29:26;;;;;;;;;;;16.20;99.90;;;;;;5046469;28;20098;-74
2022/08/01 05:31:52;;;;;;;0.95;0.95;;;16.40;99.90;;;;;;5052936;28;20310;-75
2022/08/01 05:34:18;;;;;;;;;;;16.50;99.90;;;;;;5049323;28;20052;-75
2022/08/01 05:36:44;;;;;;;0.20;0.20;;;16.50;99.90;;;;;;5050168;28;19921;-75
2022/08/01 05:39:10;;;;;;;;;;;16.50;99.90;;;;;;5054969;28;20693;-75
2022/08/01 05:41:36;;;;;;;0.47;0.47;;;16.40;99.90;;;;;;5050569;28;20039;-74
2022/08/01 05:44:06;;;;;;;0.30;0.30;;;16.30;99.90;;;;;;5050329;28;20040;-75
2022/08/01 05:46:32;;;;;;;0.47;0.47;;;16.40;99.90;;;;;;5053275;28;20053;-74
2022/08/01 05:48:58;;;;;;;0.30;0.30;;;16.60;99.90;;;;;;5040313;28;20198;-74
2022/08/01 05:51:24;;;;;;;0.40;0.40;;;16.40;99.90;;;;;;5046799;28;20045;-74
2022/08/01 05:53:50;;;;;;;;;;;16.50;99.90;;;;;;5051863;28;20048;-74
2022/08/01 05:56:16;;;;;;;0.40;0.40;;;16.50;99.90;;;;;;5053408;28;19962;-75
2022/08/01 05:58:41;;;;;;;;;;;16.40;99.90;;;;;;5052099;28;20469;-73
2022/08/01 06:01:07;;;;;;;0.45;0.45;;;16.50;99.90;;;;;;5049108;28;19924;-73
2022/08/01 06:03:33;;;;;;;;;;;16.50;99.90;;;;;;5060842;28;20039;-72
2022/08/01 06:06:00;;;;;;;0.30;0.30;;;16.50;99.90;;;;;;5054302;28;19939;-72
2022/08/01 06:08:25;;;;;;;0.55;0.52;;;16.50;99.90;;;;;;5060719;28;20053;-73
2022/08/01 06:10:51;;;;;;;;;;;16.50;99.90;;;;;;5057186;28;20051;-72
2022/08/01 06:13:19;;;;;;;0.70;0.70;;;16.60;99.90;;;;;;5055976;28;19920;-73
2022/08/01 06:15:45;;;;;;;0.55;0.55;;;16.40;99.90;;;;;;5047815;28;20052;-72
2022/08/01 06:18:11;;;;;;;1.55;0.55;;;16.60;99.90;;;;;;5054600;28;20048;-73
2022/08/01 06:20:37;;;;;;;0.30;0.30;;;16.60;99.90;;;;;;5044906;28;20036;-72
2022/08/01 06:23:03;;;;;;;;;;;16.50;99.90;;;;;;5049234;28;20036;-73
2022/08/01 06:25:29;;;;;;;0.28;0.28;;;16.50;99.90;;;;;;5051146;28;19932;-73
2022/08/01 06:27:54;;;;;;;;;;;16.40;99.90;;;;;;5042161;28;20132;-73
2022/08/01 06:30:20;;;;;;;0.43;0.43;;;16.50;99.90;;;;;;5039512;28;20294;-73
2022/08/01 06:32:47;;;;;;;0.35;0.35;;;16.50;99.90;;;;;;5041207;28;20394;-74
2022/08/01 06:35:13;;;;;;;0.20;0.20;;;16.60;99.90;;;;;;5041779;28;20037;-73
2022/08/01 06:37:39;;;;;;;0.60;0.60;;;16.60;99.90;;;;;;5042172;28;20128;-73
2022/08/01 06:40:06;;;;;;;;;;;16.70;99.90;;;;;;5049431;28;20128;-73
2022/08/01 06:42:35;;;;;;;0.75;0.75;;;16.70;99.90;;;;;;5050802;28;19921;-74
2022/08/01 06:45:06;;;;;;;0.52;0.52;;;16.80;99.90;;;;;;5051834;28;20129;-74
2022/08/01 06:47:31;;;;;;;0.30;0.30;;;17.00;99.90;;;;;;5051029;28;20067;-74
2022/08/01 06:49:57;;;;;;;;;;;17.10;99.90;;;;;;5050463;28;20040;-74
2022/08/01 06:52:23;;;;;;;0.20;0.20;;;17.00;99.90;;;;;;5055368;28;19967;-73
2022/08/01 06:54:49;;;;;;;;;;;17.10;99.90;;;;;;5047453;28;20044;-74
2022/08/01 06:57:14;;;;;;;1.15;1.15;;;17.10;99.90;;;;;;5052086;28;19921;-74
2022/08/01 06:59:40;;;;;;;;;;;17.30;99.90;;;;;;5070338;28;20367;-74
2022/08/01 07:02:07;;;;;;;0.30;0.30;;;17.40;99.90;;;;;;5042973;28;19932;-74
2022/08/01 07:04:33;;;;;;;0.25;0.25;;;17.40;99.90;;;;;;5043891;28;20039;-73
2022/08/01 07:06:59;;;;;;;0.75;0.75;;;17.40;99.90;;;;;;5044347;28;20037;-73
2022/08/01 07:09:25;;;;;;;0.57;0.57;;;17.40;99.90;;;;;;5033069;28;20095;-74
2022/08/01 07:11:52;;;;;;;0.40;0.40;;;17.40;99.90;;;;;;5042708;28;20036;-72
2022/08/01 07:14:18;;;;;;;0.20;0.20;;;17.50;99.90;;;;;;5029705;28;20048;-73
2022/08/01 07:16:45;;;;;;;0.22;0.22;;;17.50;99.90;;;;;;5031307;28;20044;-74
2022/08/01 07:19:11;;;;;;;0.30;0.30;;;17.40;99.90;;;;;;5058662;28;20044;-74
2022/08/01 07:21:36;;;;;;;;;;;17.70;99.90;;;;;;5053730;28;20052;-74
2022/08/01 07:24:02;;;;;;;0.40;0.40;;;17.50;99.90;;;;;;5048702;28;20282;-74
2022/08/01 07:26:28;;;;;;;;;;;17.60;99.90;;;;;;5063537;28;20099;-74
2022/08/01 07:28:54;;;;;;;0.32;0.32;;;17.90;99.90;;;;;;5050294;28;19931;-74
2022/08/01 07:31:20;;;;;;;0.13;0.13;;;18.00;99.90;;;;;;5047661;28;20460;-74
2022/08/01 07:33:46;;;;;;;;;;;17.90;99.90;;;;;;5030372;28;20053;-74
2022/08/01 07:36:12;;;;;;;0.20;0.20;;;18.20;99.90;;;;;;5047030;28;20019;-74
2022/08/01 07:38:37;;;;;;;;;;;18.30;99.90;;;;;;5041804;28;20045;-74
2022/08/01 07:41:03;;;;;;;1.63;1.52;;;18.20;99.90;;;;;;5053139;28;19920;-73
2022/08/01 07:43:29;;;;;;;;;;;18.00;99.90;;;;;;5051619;28;20041;-74
2022/08/01 07:45:54;;;;;;;2.38;0.50;;;18.00;99.90;;;;;;5045356;28;19943;-74
2022/08/01 07:48:23;;;;;;;;;;;17.80;99.90;;;;;;5047677;28;20059;-74
2022/08/01 07:50:50;;;;;;;0.50;0.50;;;18.10;99.90;;;;;;5032828;28;19916;-74
2022/08/01 07:53:16;;;;;;;0.40;0.40;;;18.10;99.90;;;;;;5049940;28;20052;-75
2022/08/01 07:55:42;;;;;;;0.30;0.30;;;17.90;99.90;;;;;;5047884;28;20045;-73
2022/08/01 07:58:08;;;;;;;;;;;18.00;99.90;;;;;;5036133;28;20051;-74
2022/08/01 08:00:33;;;;;;;0.47;0.47;;;17.80;99.90;;;;;;5050761;28;19921;-73
2022/08/01 08:02:59;;;;;;;;;;;18.30;99.90;;;;;;5056941;28;20052;-74
2022/08/01 08:05:28;;;;;;;0.45;0.45;;;18.00;99.90;;;;;;5050197;28;20121;-74
2022/08/01 08:07:53;;;;;;;0.25;0.25;;;18.10;99.90;;;;;;5055621;28;20044;-74
2022/08/01 08:10:19;;;;;;;;;;;18.20;99.90;;;;;;5052624;28;20045;-74
2022/08/01 08:12:46;;;;;;;0.20;0.20;;;18.00;99.90;;;;;;5038453;28;19920;-74
2022/08/01 08:15:12;;;;;;;0.40;0.40;;;17.80;99.90;;;;;;5048813;28;20036;-73
2022/08/01 08:17:39;;;;;;;0.25;0.25;;;18.20;99.90;;;;;;5071013;28;20041;-74
2022/08/01 08:20:06;;;;;;;0.52;0.40;;;18.40;99.90;;;;;;5051609;28;20045;-74
2022/08/01 08:22:32;;;;;;;0.30;0.30;;;18.30;99.90;;;;;;5057936;28;20125;-74
2022/08/01 08:24:58;;;;;;;;;;;18.30;99.90;;;;;;5050940;28;20048;-75
2022/08/01 08:27:24;;;;;;;0.20;0.20;;;18.70;99.90;;;;;;5057951;28;19924;-75
2022/08/01 08:29:50;;;;;;;0.30;0.30;;;18.60;99.90;;;;;;5044786;28;20063;-75
2022/08/01 08:32:16;;;;;;;;;;;18.80;99.90;;;;;;5047975;28;20037;-73
2022/08/01 08:34:45;;;;;;;0.22;0.22;;;18.80;99.90;;;;;;5045938;28;19964;-73
2022/08/01 08:37:11;;;;;;;0.50;0.50;;;18.90;99.90;;;;;;5047043;28;20482;-73
2022/08/01 08:39:37;;;;;;;;;;;18.70;99.90;;;;;;5049673;28;20056;-73
2022/08/01 08:42:07;;;;;;;0.30;0.30;;;18.80;99.90;;;;;;5048456;28;19964;-74
2022/08/01 08:44:33;;;;;;;0.93;0.93;;;18.70;99.90;;;;;;5037203;28;20044;-74
2022/08/01 08:47:00;;;;;;;;;;;18.90;99.90;;;;;;5050598;28;20043;-73
2022/08/01 08:49:29;;;;;;;0.20;0.20;;;18.60;99.90;;;;;;5054192;28;20477;-74
2022/08/01 08:51:59;;;;;;;0.38;0.38;;;18.80;99.90;;;;;;5024878;28;20049;-73
2022/08/01 08:54:27;;;;;;;0.30;0.30;;;18.60;99.90;;;;;;5051708;28;20048;-74
2022/08/01 08:56:54;;;;;;;0.52;0.52;;;19.00;99.90;;;;;;5046719;28;20606;-73
2022/08/01 08:59:24;;;;;;;0.38;0.38;;;18.90;99.90;;;;;;5046868;28;20040;-73
2022/08/01 09:01:50;;;;;;;1.45;1.10;;;19.00;99.90;;;;;;5026758;28;20040;-72
2022/08/01 09:04:17;;;;;;;0.20;0.20;;;19.20;99.90;;;;;;5041456;28;20086;-73
2022/08/01 09:06:43;;;;;;;0.30;0.30;;;19.40;99.90;;;;;;5041459;28;20055;-71
2022/08/01 09:09:09;;;;;;;;;;;19.40;99.90;;;;;;5046584;28;20044;-71
2022/08/01 09:11:36;;;;;;;0.28;0.28;;;19.30;99.90;;;;;;5041512;28;19932;-71
2022/08/01 09:14:05;;;;;;;0.30;0.30;;;19.50;99.90;;;;;;5046409;28;20524;-71
2022/08/01 09:16:31;;;;;;;2.38;0.50;;;19.70;99.90;;;;;;5046959;28;20048;-72
2022/08/01 09:19:20;;;;;;;0.20;0.20;;;19.40;99.90;;;;;;5039707;28;20055;-72
2022/08/01 09:22:07;;;;;;;0.22;0.22;;;19.30;99.90;;;;;;5033735;28;20303;-72
2022/08/01 09:24:34;;;;;;;0.20;0.20;;;19.80;99.90;;;;;;5039267;28;20041;-72
2022/08/01 09:27:14;;;;;;;0.20;0.20;;;19.80;99.90;;;;;;5046467;28;20474;-71
2022/08/01 09:29:40;;;;;;;0.20;0.20;;;20.00;99.90;;;;;;5048749;28;20044;-72
2022/08/01 09:32:06;;;;;;;0.22;0.22;;;20.00;99.90;;;;;;5050101;28;20048;-71
2022/08/01 09:34:32;;;;;;;0.30;0.30;;;19.70;99.90;;;;;;5052522;28;20397;-72
2022/08/01 09:37:01;;;;;;;2.70;1.50;;;19.60;99.90;;;;;;5059599;28;20048;-71
2022/08/01 09:39:28;;;;;;;0.30;0.30;;;19.80;99.90;;;;;;5049167;28;20043;-74
2022/08/01 09:41:55;;;;;;;0.45;0.45;;;19.70;99.90;;;;;;5035894;28;20076;-73
2022/08/01 09:44:41;;;;;;;0.30;0.30;;;19.90;99.90;;;;;;5078714;28;20056;-72
2022/08/01 09:47:07;;;;;;;1.00;1.00;;;20.20;99.90;;;;;;5050556;28;20546;-72
2022/08/01 09:49:37;;;;;;;0.40;0.40;;;19.90;99.90;;;;;;5049445;28;20486;-72
2022/08/01 09:52:21;;;;;;;0.30;0.30;;;19.80;99.90;;;;;;5047314;28;20047;-72
2022/08/01 09:55:01;;;;;;;0.30;0.30;;;19.80;99.90;;;;;;5050397;28;20044;-72
2022/08/01 09:57:28;;;;;;;0.35;0.35;;;20.00;99.90;;;;;;5038743;28;20052;-72
2022/08/01 09:59:56;;;;;;;0.20;0.20;;;20.00;99.90;;;;;;5049622;28;20475;-72
2022/08/01 10:02:37;;;;;;;0.30;0.30;;;20.10;99.90;;;;;;5042781;28;20394;-73
2022/08/01 10:05:06;;;;;;;0.85;0.85;;;20.40;99.90;;;;;;5056676;28;20041;-72
2022/08/01 10:07:32;;;;;;;0.30;0.30;;;20.00;99.90;;;;;;5046805;28;20052;-73
2022/08/01 10:10:15;;;;;;;0.20;0.20;;;19.80;99.90;;;;;;5034636;28;20029;-72
2022/08/01 10:12:41;;;;;;;1.25;0.22;;;19.90;99.90;;;;;;5048517;28;20037;-72
2022/08/01 10:15:09;;;;;;;0.20;0.20;;;19.70;99.90;;;;;;5030109;28;20060;-71
2022/08/01 10:17:38;;;;;;;2.53;0.60;;;19.90;99.90;;;;;;5048316;28;20041;-72
2022/08/01 10:20:05;;;;;;;0.20;0.20;;;20.00;99.90;;;;;;5044070;28;20083;-72
2022/08/01 10:22:33;;;;;;;0.30;0.30;;;19.70;99.90;;;;;;5030284;28;20040;-73
2022/08/01 10:25:03;;;;;;;0.28;0.28;;;20.00;99.90;;;;;;5057170;28;20059;-72
2022/08/01 10:27:32;;;;;;;0.20;0.20;;;20.00;99.90;;;;;;5049821;28;20135;-72
2022/08/01 10:30:07;;;;;;;0.52;0.52;;;20.10;99.90;;;;;;5048699;28;20128;-72
2022/08/01 10:32:35;;;;;;;0.22;0.22;;;20.10;99.90;;;;;;5050620;28;20041;-72
2022/08/01 10:35:01;;;;;;;0.30;0.30;;;20.20;99.90;;;;;;5056021;28;20049;-72
2022/08/01 10:37:28;;;;;;;0.28;0.28;;;20.10;99.90;;;;;;5051431;28;20063;-72
2022/08/01 10:39:55;;;;;;;0.20;0.20;;;20.20;99.90;;;;;;5060047;28;20045;-73
2022/08/01 10:42:21;;;;;;;0.25;0.25;;;20.40;99.90;;;;;;5051144;28;20102;-73
2022/08/01 10:44:47;;;;;;;0.30;0.30;;;20.70;99.90;;;;;;5043279;28;20041;-73
2022/08/01 10:47:17;;;;;;;0.45;0.45;;;20.70;99.90;;;;;;5051273;28;20126;-72
2022/08/01 10:50:04;;;;;;;0.30;0.30;;;20.30;99.90;;;;;;5049629;28;20110;-73
2022/08/01 10:52:30;;;;;;;0.20;0.20;;;20.20;99.90;;;;;;5046566;28;20127;-73
2022/08/01 10:55:05;;;;;;;;;;;20.00;99.90;;;;;;5055423;28;20147;-73
2022/08/01 10:57:57;;;;;;;0.20;0.20;;;20.10;99.90;;;;;;5047896;28;19921;-72
2022/08/01 11:00:23;;;;;;;0.30;0.30;;;20.20;99.90;;;;;;5044362;28;20055;-72
2022/08/01 11:03:03;;;;;;;0.30;0.30;;;20.40;99.90;;;;;;5047478;28;20033;-74
2022/08/01 11:05:35;;;;;;;0.30;0.30;;;20.50;99.90;;;;;;5044951;28;20110;-73
2022/08/01 11:08:30;;;;;;;0.60;0.60;;;20.30;99.90;;;;;;5042692;28;20064;-72
2022/08/01 11:11:04;;;;;;;0.20;0.20;;;20.30;99.90;;;;;;5044350;28;20057;-73
2022/08/01 11:14:01;;;;;;;0.45;0.45;;;20.30;99.90;;;;;;5047949;28;20071;-72
2022/08/01 11:16:31;;;;;;;0.20;0.20;;;20.50;99.90;;;;;;5039315;28;20171;-72
2022/08/01 11:18:57;;;;;;;0.30;0.28;;;20.40;99.90;;;;;;5048705;28;20052;-73
2022/08/01 11:21:52;;;;;;;0.32;0.32;;;20.50;99.90;;;;;;5062279;28;20521;-73
2022/08/01 11:24:45;;;;;;;0.20;0.20;;;20.20;99.90;;;;;;5047292;28;20056;-72
2022/08/01 11:27:22;;;;;;;0.65;0.65;;;20.30;99.90;;;;;;5040868;28;20056;-72
2022/08/01 11:30:10;;;;;;;0.30;0.30;;;20.20;99.90;;;;;;5033525;28;20053;-72
2022/08/01 11:32:52;;;;;;;1.00;1.00;;;20.30;99.90;;;;;;5046488;28;20041;-72
2022/08/01 11:35:20;;;;;;;0.25;0.25;;;20.30;99.90;;;;;;5044737;28;20040;-72
2022/08/01 11:37:47;;;;;;;0.20;0.20;;;20.30;99.90;;;;;;5047032;28;20045;-73
2022/08/01 11:40:21;;;;;;;0.47;0.47;;;20.40;99.90;;;;;;5049587;28;20047;-73
2022/08/01 11:42:48;;;;;;;1.05;1.05;;;20.30;99.90;;;;;;5046301;28;20051;-73
2022/08/01 11:45:14;;;;;;;0.47;0.45;;;20.50;99.90;;;;;;5048131;28;20052;-72
2022/08/01 11:47:42;;;;;;;0.22;0.22;;;20.40;99.90;;;;;;5039884;28;20044;-72
2022/08/01 11:50:28;;;;;;;0.30;0.30;;;20.70;99.90;;;;;;5046506;28;20146;-72
2022/08/01 11:53:04;;;;;;;0.30;0.30;;;20.10;99.90;;;;;;5046385;28;20032;-73
2022/08/01 11:55:30;;;;;;;;;;;21.00;99.90;;;;;;5050375;28;20410;-72
2022/08/01 11:58:05;;;;;;;0.35;0.35;;;21.10;99.90;;;;;;5053966;28;20018;-72
2022/08/01 12:00:31;;;;;;;0.40;0.40;;;21.10;99.90;;;;;;5049424;28;20053;-72
2022/08/01 12:03:05;;;;;;;2.50;1.65;;;20.90;99.90;;;;;;5030941;28;20045;-73
2022/08/01 12:05:33;;;;;;;0.38;0.38;;;20.80;99.90;;;;;;5045708;28;20064;-72
2022/08/01 12:08:00;;;;;;;0.30;0.30;;;21.00;99.90;;;;;;5028223;28;20413;-73
2022/08/01 12:10:32;;;;;;;0.30;0.30;;;21.20;99.90;;;;;;5061006;28;20045;-73
2022/08/01 12:13:02;;;;;;;0.40;0.40;;;21.30;99.90;;;;;;5044041;28;20135;-73
2022/08/01 12:15:33;;;;;;;0.40;0.40;;;21.40;99.90;;;;;;5044656;28;20056;-74
2022/08/01 12:18:06;;;;;;;0.30;0.30;;;21.40;99.90;;;;;;5044839;28;20590;-73
2022/08/01 12:20:40;;;;;;;0.30;0.30;;;21.30;99.90;;;;;;5045617;28;20048;-73
2022/08/01 12:23:09;;;;;;;0.77;0.77;;;21.30;99.90;;;;;;5041169;28;20194;-74
2022/08/01 12:25:36;;;;;;;0.30;0.30;;;21.40;99.90;;;;;;5046107;28;20061;-73
2022/08/01 12:28:04;;;;;;;0.20;0.20;;;21.50;99.90;;;;;;5045093;28;20095;-73
2022/08/01 12:30:31;;;;;;;0.28;0.28;;;21.70;99.90;;;;;;5045097;28;20049;-73
2022/08/01 12:32:57;;;;;;;0.30;0.30;;;21.90;99.90;;;;;;5029687;28;20056;-72
2022/08/01 12:35:25;;;;;;;0.20;0.20;;;22.00;99.90;;;;;;5046716;28;20371;-74
2022/08/01 12:37:56;;;;;;;0.17;0.17;;;22.00;99.90;;;;;;5047082;28;20064;-72
2022/08/01 12:40:28;;;;;;;0.22;0.22;;;22.00;99.90;;;;;;5029033;28;20050;-72
2022/08/01 12:42:56;;;;;;;0.20;0.20;;;22.00;99.90;;;;;;5046894;28;20453;-73
2022/08/01 12:45:28;;;;;;;0.40;0.40;;;22.30;99.90;;;;;;5047484;28;20572;-73
2022/08/01 12:47:57;;;;;;;0.40;0.40;;;22.20;99.90;;;;;;5045442;28;20045;-73
2022/08/01 12:50:25;;;;;;;0.20;0.20;;;22.20;99.90;;;;;;5049297;28;20120;-73
2022/08/01 12:52:51;;;;;;;0.45;0.45;;;22.20;99.90;;;;;;5044846;28;20052;-72
2022/08/01 12:55:25;;;;;;;0.32;0.32;;;22.30;99.90;;;;;;5045975;28;20127;-73
2022/08/01 12:58:05;;;;;;;0.30;0.30;;;22.40;99.90;;;;;;5043657;28;20048;-73
2022/08/01 13:00:31;;;;;;;0.25;0.25;;;22.60;99.90;;;;;;5041446;28;20052;-73
2022/08/01 13:03:17;;;;;;;0.55;0.40;;;22.60;99.90;;;;;;5042110;28;20048;-73
2022/08/01 13:05:48;;;;;;;0.20;0.20;;;22.80;99.90;;;;;;5029194;28;20045;-73
2022/08/01 13:08:19;;;;;;;0.20;0.20;;;22.60;99.90;;;;;;5044501;28;20049;-74